createdAt,value
2023-05-04T00:01:49.567Z,94781.53
2023-05-04T00:03:51.583Z,94775.78
2023-05-04T00:05:53.260Z,94778.72
2023-05-04T00:07:54.910Z,94773.22
2023-05-04T00:09:56.505Z,94768.97
2023-05-04T00:11:58.054Z,94777.50
2023-05-04T00:13:59.736Z,94763.59
2023-05-04T00:16:01.587Z,94770.81
2023-05-04T00:18:03.253Z,94770.16
2023-05-04T00:20:05.591Z,94770.31
2023-05-04T00:22:07.931Z,94768.69
2023-05-04T00:24:09.520Z,94776.25
2023-05-04T00:26:11.204Z,94774.94
2023-05-04T00:28:12.962Z,94773.47
2023-05-04T00:30:15.329Z,94772.81
2023-05-04T00:32:16.942Z,94777.59
2023-05-04T00:34:18.655Z,94775.63
2023-05-04T00:36:20.244Z,94777.44
2023-05-04T00:38:21.838Z,94774.66
2023-05-04T00:40:23.619Z,94779.22
2023-05-04T00:42:25.222Z,94772.31
2023-05-04T00:44:27.527Z,94781.97
2023-05-04T00:46:29.329Z,94782.16
2023-05-04T00:48:31.299Z,94779.72
2023-05-04T00:50:32.955Z,94780.06
2023-05-04T00:52:34.770Z,94774.50
2023-05-04T00:54:36.403Z,94777.78
2023-05-04T00:56:42.296Z,94778.78
2023-05-04T00:58:43.986Z,94777.47
2023-05-04T01:00:45.590Z,94770.75
2023-05-04T01:02:47.286Z,94759.59
2023-05-04T01:04:49.101Z,94757.97
2023-05-04T01:07:27.681Z,94755.69
2023-05-04T01:09:38.171Z,94763.88
2023-05-04T01:11:49.800Z,94769.47
2023-05-04T01:13:51.450Z,94768.00
2023-05-04T01:15:53.212Z,94756.50
2023-05-04T01:17:54.862Z,94767.63
2023-05-04T01:19:56.549Z,94764.69
2023-05-04T01:21:58.556Z,94755.34
2023-05-04T01:24:00.302Z,94753.03
2023-05-04T01:26:21.546Z,94753.84
2023-05-04T01:28:45.961Z,94752.56
2023-05-04T01:30:50.851Z,94762.56
2023-05-04T01:32:53.107Z,94750.91
2023-05-04T01:34:54.849Z,94748.63
2023-05-04T01:36:56.892Z,94755.19
2023-05-04T01:38:59.681Z,94757.00
2023-05-04T01:41:01.227Z,94750.44
2023-05-04T01:43:02.818Z,94743.88
2023-05-04T01:45:04.791Z,94748.63
2023-05-04T01:47:06.565Z,94740.59
2023-05-04T01:49:08.185Z,94739.94
2023-05-04T01:51:09.773Z,94738.13
2023-05-04T01:53:11.422Z,94736.31
2023-05-04T01:55:13.038Z,94733.06
2023-05-04T01:57:14.634Z,94730.91
2023-05-04T01:59:16.246Z,94737.31
2023-05-04T02:01:17.871Z,94738.31
2023-05-04T02:03:19.564Z,94743.56
2023-05-04T02:05:21.165Z,94739.13
2023-05-04T02:07:22.782Z,94748.97
2023-05-04T02:09:24.374Z,94736.97
2023-05-04T02:11:26.111Z,94736.66
2023-05-04T02:13:27.747Z,94739.94
2023-05-04T02:15:29.420Z,94740.75
2023-05-04T02:17:31.564Z,94736.00
2023-05-04T02:19:33.206Z,94735.97
2023-05-04T02:21:35.343Z,94733.53
2023-05-04T02:23:36.965Z,94743.19
2023-05-04T02:25:42.021Z,94736.81
2023-05-04T02:27:43.576Z,94735.69
2023-05-04T02:29:45.224Z,94745.81
2023-05-04T02:31:46.927Z,94740.06
2023-05-04T02:33:50.770Z,94740.28
2023-05-04T02:35:52.225Z,94738.63
2023-05-04T02:37:53.781Z,94744.84
2023-05-04T02:39:55.326Z,94737.97
2023-05-04T02:41:57.029Z,94738.94
2023-05-04T02:43:58.608Z,94734.69
2023-05-04T02:46:00.412Z,94745.84
2023-05-04T02:48:02.470Z,94739.44
2023-05-04T02:50:04.701Z,94745.16
2023-05-04T02:52:06.594Z,94744.34
2023-05-04T02:54:08.501Z,94748.09
2023-05-04T02:56:10.075Z,94741.53
2023-05-04T02:58:11.589Z,94744.50
2023-05-04T03:00:13.872Z,94742.19
2023-05-04T03:02:15.475Z,94740.75
2023-05-04T03:04:17.094Z,94748.13
2023-05-04T03:06:18.770Z,94750.75
2023-05-04T03:08:20.360Z,94753.03
2023-05-04T03:10:22.012Z,94748.91
2023-05-04T03:12:24.671Z,94754.97
2023-05-04T03:14:26.441Z,94748.41
2023-05-04T03:16:28.083Z,94754.28
2023-05-04T03:20:49.057Z,94759.50
2023-05-04T03:22:51.254Z,94765.25
2023-05-04T03:24:52.845Z,94757.03
2023-05-04T03:26:54.808Z,94766.56
2023-05-04T03:28:56.574Z,94763.13
2023-05-04T03:30:58.120Z,94764.41
2023-05-04T03:33:00.037Z,94764.22
2023-05-04T03:35:03.911Z,94767.31
2023-05-04T03:37:05.722Z,94768.41
2023-05-04T03:39:07.928Z,94772.16
2023-05-04T03:41:10.761Z,94773.13
2023-05-04T03:43:12.428Z,94774.47
2023-05-04T03:45:14.031Z,94777.75
2023-05-04T03:47:15.778Z,94777.06
2023-05-04T03:49:17.351Z,94778.56
2023-05-04T03:51:19.048Z,94786.38
2023-05-04T03:53:20.676Z,94787.19
2023-05-04T03:55:22.386Z,94788.31
2023-05-04T03:57:24.341Z,94785.63
2023-05-04T03:59:25.978Z,94788.13
2023-05-04T04:01:27.607Z,94784.66
2023-05-04T04:03:29.707Z,94787.44
2023-05-04T04:05:31.363Z,94790.56
2023-05-04T04:07:33.300Z,94793.69
2023-05-04T04:09:34.915Z,94793.69
2023-05-04T04:11:36.497Z,94801.22
2023-05-04T04:13:38.140Z,94803.38
2023-05-04T04:15:40.946Z,94799.34
2023-05-04T04:17:43.668Z,94800.06
2023-05-04T04:19:45.295Z,94798.59
2023-05-04T04:21:46.835Z,94805.66
2023-05-04T04:23:48.445Z,94795.31
2023-05-04T04:25:50.026Z,94801.13
2023-05-04T04:27:51.692Z,94809.06
2023-05-04T04:29:53.242Z,94801.97
2023-05-04T04:31:55.062Z,94807.31
2023-05-04T04:33:56.776Z,94803.97
2023-05-04T04:35:58.435Z,94811.69
2023-05-04T04:38:02.221Z,94816.03
2023-05-04T04:40:07.491Z,94818.66
2023-05-04T04:42:09.126Z,94819.28
2023-05-04T04:44:11.682Z,94818.75
2023-05-04T04:46:13.416Z,94818.50
2023-05-04T04:48:15.369Z,94822.91
2023-05-04T04:50:17.600Z,94824.41
2023-05-04T04:52:19.157Z,94827.09
2023-05-04T04:54:20.781Z,94823.75
2023-05-04T04:56:22.595Z,94830.13
2023-05-04T04:58:24.197Z,94828.13
2023-05-04T05:00:26.290Z,94827.50
2023-05-04T05:02:28.570Z,94835.03
2023-05-04T05:04:30.326Z,94832.94
2023-05-04T05:06:31.937Z,94842.44
2023-05-04T05:08:33.948Z,94841.69
2023-05-04T05:10:36.103Z,94842.16
2023-05-04T05:12:38.136Z,94846.16
2023-05-04T05:14:39.753Z,94839.81
2023-05-04T05:16:41.377Z,94843.31
2023-05-04T05:18:43.109Z,94841.44
2023-05-04T05:20:44.702Z,94844.53
2023-05-04T05:22:46.382Z,94844.91
2023-05-04T05:24:48.005Z,94848.13
2023-05-04T05:26:49.553Z,94853.16
2023-05-04T05:28:51.555Z,94851.66
2023-05-04T05:30:53.227Z,94855.63
2023-05-04T05:32:54.929Z,94852.44
2023-05-04T05:34:56.844Z,94852.91
2023-05-04T05:36:58.432Z,94858.22
2023-05-04T05:39:00.133Z,94864.06
2023-05-04T05:41:01.910Z,94863.78
2023-05-04T05:43:05.597Z,94864.34
2023-05-04T05:45:08.104Z,94868.34
2023-05-04T05:47:09.707Z,94869.34
2023-05-04T05:49:11.509Z,94872.53
2023-05-04T05:51:13.144Z,94874.69
2023-05-04T05:53:14.741Z,94871.91
2023-05-04T05:55:16.303Z,94878.31
2023-05-04T05:57:17.999Z,94882.91
2023-05-04T05:59:19.587Z,94880.81
2023-05-04T06:01:21.174Z,94881.78
2023-05-04T06:03:23.085Z,94883.28
2023-05-04T06:05:24.763Z,94885.75
2023-05-04T06:07:26.545Z,94886.25
2023-05-04T06:09:28.168Z,94883.69
2023-05-04T06:11:29.814Z,94883.50
2023-05-04T06:13:31.419Z,94887.97
2023-05-04T06:15:33.093Z,94885.66
2023-05-04T06:17:34.924Z,94887.94
2023-05-04T06:19:39.469Z,94887.63
2023-05-04T06:21:41.163Z,94891.88
2023-05-04T06:23:42.765Z,94893.84
2023-05-04T06:25:44.389Z,94889.38
2023-05-04T06:27:46.086Z,94882.16
2023-05-04T06:29:47.721Z,94881.31
2023-05-04T06:31:49.508Z,94885.59
2023-05-04T06:33:51.268Z,94888.72
2023-05-04T06:35:53.458Z,94881.31
2023-05-04T06:37:54.995Z,94889.38
2023-05-04T06:39:56.662Z,94891.53
2023-05-04T06:41:58.435Z,94890.41
2023-05-04T06:44:00.585Z,94881.72
2023-05-04T06:46:05.634Z,94889.59
2023-05-04T06:48:08.859Z,94887.63
2023-05-04T06:50:11.865Z,94894.50
2023-05-04T06:52:14.486Z,94888.63
2023-05-04T06:54:16.120Z,94893.22
2023-05-04T06:56:17.652Z,94891.91
2023-05-04T06:58:20.137Z,94897.63
2023-05-04T07:00:22.674Z,94895.19
2023-05-04T07:02:24.424Z,94891.56
2023-05-04T07:04:26.129Z,94894.03
2023-05-04T07:06:28.698Z,94896.81
2023-05-04T07:08:30.307Z,94887.78
2023-05-04T07:10:32.786Z,94892.69
2023-05-04T07:12:34.466Z,94892.03
2023-05-04T07:14:36.164Z,94896.47
2023-05-04T07:16:38.014Z,94887.78
2023-05-04T07:18:40.651Z,94889.91
2023-05-04T07:20:42.856Z,94895.66
2023-05-04T07:22:44.519Z,94896.81
2023-05-04T07:24:46.815Z,94899.78
2023-05-04T07:26:48.409Z,94904.38
2023-05-04T07:28:50.046Z,94910.28
2023-05-04T07:30:51.579Z,94896.16
2023-05-04T07:32:53.345Z,94902.88
2023-05-04T07:34:55.010Z,94903.69
2023-05-04T07:36:56.748Z,94904.84
2023-05-04T07:38:58.278Z,94904.97
2023-05-04T07:41:00.016Z,94899.72
2023-05-04T07:43:01.635Z,94907.56
2023-05-04T07:45:03.929Z,94907.06
2023-05-04T07:47:05.756Z,94904.13
2023-05-04T07:49:07.390Z,94904.94
2023-05-04T07:51:13.671Z,94901.50
2023-05-04T07:53:15.204Z,94909.19
2023-05-04T07:55:16.831Z,94912.50
2023-05-04T07:57:18.429Z,94908.63
2023-05-04T07:59:20.399Z,94919.97
2023-05-04T08:01:21.998Z,94917.50
2023-05-04T08:03:23.758Z,94925.22
2023-05-04T08:05:25.440Z,94919.63
2023-05-04T08:07:27.044Z,94928.00
2023-05-04T08:09:28.632Z,94931.13
2023-05-04T08:11:30.364Z,94928.00
2023-05-04T08:13:31.953Z,94934.06
2023-05-04T08:15:33.729Z,94931.28
2023-05-04T08:17:35.557Z,94931.94
2023-05-04T08:19:37.185Z,94931.13
2023-05-04T08:21:40.441Z,94934.56
2023-05-04T08:23:42.333Z,94928.16
2023-05-04T08:25:43.966Z,94926.53
2023-05-04T08:27:45.971Z,94929.50
2023-05-04T08:29:47.569Z,94929.66
2023-05-04T08:31:49.533Z,94931.44
2023-05-04T08:33:51.493Z,94926.38
2023-05-04T08:35:53.121Z,94924.06
2023-05-04T08:37:55.064Z,94929.13
2023-05-04T08:39:56.901Z,94929.78
2023-05-04T08:41:58.581Z,94916.78
2023-05-04T08:44:00.221Z,94928.28
2023-05-04T08:46:01.998Z,94922.53
2023-05-04T08:48:04.097Z,94925.47
2023-05-04T08:50:07.554Z,94917.25
2023-05-04T08:52:10.250Z,94919.75
2023-05-04T08:54:12.192Z,94927.44
2023-05-04T08:56:14.515Z,94923.19
2023-05-04T08:58:17.884Z,94919.22
2023-05-04T09:00:20.271Z,94925.47
2023-05-04T09:02:23.638Z,94918.56
2023-05-04T09:04:29.282Z,94925.31
2023-05-04T09:06:31.765Z,94917.41
2023-05-04T09:08:33.430Z,94921.00
2023-05-04T09:10:35.023Z,94924.78
2023-05-04T09:12:38.021Z,94920.84
2023-05-04T09:14:41.404Z,94923.97
2023-05-04T09:16:43.050Z,94925.25
2023-05-04T09:18:45.126Z,94921.78
2023-05-04T09:20:48.006Z,94927.53
2023-05-04T09:23:01.008Z,94926.13
2023-05-04T09:25:13.059Z,94928.44
2023-05-04T09:27:18.636Z,94925.44
2023-05-04T09:29:22.148Z,94921.66
2023-05-04T09:31:24.177Z,94922.16
2023-05-04T09:33:27.356Z,94922.59
2023-05-04T09:35:33.541Z,94917.50
2023-05-04T09:37:44.181Z,94924.91
2023-05-04T09:39:57.580Z,94917.59
2023-05-04T09:41:59.169Z,94915.91
2023-05-04T09:44:00.769Z,94908.56
2023-05-04T09:46:02.932Z,94906.91
2023-05-04T09:48:16.600Z,94911.66
2023-05-04T09:50:22.519Z,94913.03
2023-05-04T09:52:24.345Z,94917.94
2023-05-04T09:54:26.750Z,94913.72
2023-05-04T09:56:42.127Z,94913.38
2023-05-04T09:58:44.638Z,94911.19
2023-05-04T10:00:46.661Z,94910.47
2023-05-04T10:02:50.255Z,94909.47
2023-05-04T10:04:52.302Z,94915.19
2023-05-04T10:06:55.071Z,94909.91
2023-05-04T10:08:59.169Z,94898.69
2023-05-04T10:11:01.036Z,94901.97
2023-05-04T10:13:02.634Z,94906.91
2023-05-04T10:15:07.904Z,94907.03
2023-05-04T10:17:18.442Z,94902.69
2023-05-04T10:19:41.026Z,94895.03
2023-05-04T10:21:55.813Z,94902.13
2023-05-04T10:24:23.314Z,94904.91
2023-05-04T10:26:33.656Z,94899.84
2023-05-04T10:28:41.087Z,94896.47
2023-05-04T10:30:43.016Z,94896.31
2023-05-04T10:32:44.887Z,94902.75
2023-05-04T10:34:46.863Z,94901.41
2023-05-04T10:36:48.792Z,94887.72
2023-05-04T10:38:50.380Z,94893.19
2023-05-04T10:40:53.802Z,94893.84
2023-05-04T10:42:55.404Z,94892.31
2023-05-04T10:44:57.583Z,94898.16
2023-05-04T10:47:04.289Z,94893.03
2023-05-04T10:49:16.208Z,94891.88
2023-05-04T10:51:26.570Z,94886.41
2023-05-04T10:53:32.148Z,94894.25
2023-05-04T10:55:43.604Z,94892.16
2023-05-04T10:57:51.116Z,94892.88
2023-05-04T10:59:59.892Z,94891.53
2023-05-04T11:02:02.397Z,94889.59
2023-05-04T11:04:04.077Z,94888.25
2023-05-04T11:06:19.547Z,94889.31
2023-05-04T11:08:24.521Z,94894.50
2023-05-04T11:10:26.635Z,94889.56
2023-05-04T11:12:28.554Z,94883.31
2023-05-04T11:14:30.392Z,94888.25
2023-05-04T11:16:31.995Z,94888.53
2023-05-04T11:18:35.328Z,94895.97
2023-05-04T11:20:36.996Z,94888.06
2023-05-04T11:22:38.620Z,94893.16
2023-05-04T11:24:45.983Z,94899.19
2023-05-04T11:26:49.425Z,94890.81
2023-05-04T11:28:51.474Z,94894.88
2023-05-04T11:30:56.010Z,94883.50
2023-05-04T11:33:00.353Z,94890.06
2023-05-04T11:35:04.408Z,94898.41
2023-05-04T11:37:06.566Z,94889.69
2023-05-04T11:39:08.371Z,94888.84
2023-05-04T11:41:10.084Z,94894.59
2023-05-04T11:43:12.784Z,94887.59
2023-05-04T11:45:18.599Z,94883.41
2023-05-04T11:47:20.708Z,94890.31
2023-05-04T11:49:22.513Z,94889.59
2023-05-04T11:51:29.993Z,94892.63
2023-05-04T11:53:38.761Z,94886.88
2023-05-04T11:55:41.341Z,94885.41
2023-05-04T11:57:42.948Z,94883.41
2023-05-04T11:59:50.849Z,94885.50
2023-05-04T12:01:52.442Z,94888.97
2023-05-04T12:03:55.000Z,94889.31
2023-05-04T12:05:57.413Z,94885.88
2023-05-04T12:07:59.400Z,94891.13
2023-05-04T12:10:01.049Z,94895.78
2023-05-04T12:12:02.643Z,94894.50
2023-05-04T12:14:11.949Z,94893.25
2023-05-04T12:16:15.478Z,94893.78
2023-05-04T12:18:29.360Z,94889.22
2023-05-04T12:20:31.301Z,94892.75
2023-05-04T12:22:33.639Z,94887.16
2023-05-04T12:24:35.643Z,94890.72
2023-05-04T12:26:37.773Z,94874.31
2023-05-04T12:28:41.085Z,94878.44
2023-05-04T12:30:42.688Z,94878.41
2023-05-04T12:32:44.650Z,94873.13
2023-05-04T12:34:46.304Z,94876.41
2023-05-04T12:36:52.049Z,94876.25
2023-05-04T12:38:53.848Z,94863.28
2023-05-04T12:40:58.861Z,94870.72
2023-05-04T12:43:00.476Z,94864.59
2023-05-04T12:45:02.067Z,94873.34
2023-05-04T12:47:04.111Z,94863.34
2023-05-04T12:49:06.385Z,94857.38
2023-05-04T12:51:07.974Z,94851.84
2023-05-04T12:53:09.648Z,94851.50
2023-05-04T12:55:11.251Z,94854.38
2023-05-04T12:57:13.020Z,94855.59
2023-05-04T12:59:14.582Z,94856.66
2023-05-04T13:01:16.938Z,94849.84
2023-05-04T13:03:18.740Z,94846.06
2023-05-04T13:05:22.795Z,94849.56
2023-05-04T13:07:24.366Z,94847.59
2023-05-04T13:09:25.975Z,94852.19
2023-05-04T13:11:27.572Z,94852.50
2023-05-04T13:13:29.899Z,94851.41
2023-05-04T13:15:33.069Z,94857.47
2023-05-04T13:17:34.852Z,94853.78
2023-05-04T13:19:36.909Z,94846.75
2023-05-04T13:21:38.478Z,94848.63
2023-05-04T13:23:40.131Z,94848.88
2023-05-04T13:25:42.226Z,94850.59
2023-05-04T13:27:43.802Z,94857.69
2023-05-04T13:29:45.391Z,94840.78
2023-05-04T13:31:47.176Z,94837.47
2023-05-04T13:33:50.550Z,94838.78
2023-05-04T13:35:52.240Z,94837.97
2023-05-04T13:37:53.990Z,94839.28
2023-05-04T13:39:56.400Z,94837.47
2023-05-04T13:41:57.963Z,94837.09
2023-05-04T13:43:59.507Z,94840.47
2023-05-04T13:46:04.472Z,94849.97
2023-05-04T13:48:06.174Z,94843.72
2023-05-04T13:50:08.374Z,94844.16
2023-05-04T13:52:10.298Z,94838.69
2023-05-04T13:54:11.903Z,94836.50
2023-05-04T13:56:13.467Z,94838.66
2023-05-04T13:58:15.084Z,94844.00
2023-05-04T14:00:17.949Z,94841.38
2023-05-04T14:02:20.193Z,94850.25
2023-05-04T14:04:22.716Z,94847.16
2023-05-04T14:06:26.062Z,94852.56
2023-05-04T14:08:27.632Z,94847.16
2023-05-04T14:10:29.204Z,94859.78
2023-05-04T14:12:30.822Z,94843.34
2023-05-04T14:14:32.497Z,94848.13
2023-05-04T14:16:36.143Z,94855.34
2023-05-04T14:18:39.007Z,94848.13
2023-05-04T14:20:40.681Z,94851.25
2023-05-04T14:22:42.352Z,94852.06
2023-05-04T14:24:43.962Z,94853.66
2023-05-04T14:26:45.907Z,94850.13
2023-05-04T14:28:48.319Z,94852.34
2023-05-04T14:30:50.486Z,94853.75
2023-05-04T14:32:58.290Z,94848.09
2023-05-04T14:35:06.596Z,94851.00
2023-05-04T14:37:08.476Z,94846.50
2023-05-04T14:39:10.038Z,94837.38
2023-05-04T14:41:13.704Z,94844.91
2023-05-04T14:43:15.266Z,94835.56
2023-05-04T14:45:17.338Z,94841.63
2023-05-04T14:47:19.897Z,94844.03
2023-05-04T14:49:35.808Z,94842.03
2023-05-04T14:51:39.246Z,94845.84
2023-05-04T14:53:41.130Z,94845.19
2023-05-04T14:55:42.790Z,94844.97
2023-05-04T14:57:44.334Z,94847.38
2023-05-04T14:59:46.155Z,94848.38
2023-05-04T15:01:47.833Z,94852.47
2023-05-04T15:03:49.856Z,94849.69
2023-05-04T15:05:51.553Z,94848.78
2023-05-04T15:07:53.119Z,94848.41
2023-05-04T15:09:54.732Z,94846.97
2023-05-04T15:11:56.614Z,94847.81
2023-05-04T15:13:59.071Z,94846.16
2023-05-04T15:16:00.781Z,94843.41
2023-05-04T15:18:02.435Z,94854.53
2023-05-04T15:20:05.449Z,94853.63
2023-05-04T15:22:07.593Z,94856.59
2023-05-04T15:24:09.192Z,94854.91
2023-05-04T15:26:10.777Z,94853.84
2023-05-04T15:28:12.569Z,94855.13
2023-05-04T15:30:14.479Z,94854.25
2023-05-04T15:32:16.031Z,94858.88
2023-05-04T15:34:18.606Z,94854.75
2023-05-04T15:36:20.360Z,94853.81
2023-05-04T15:38:22.085Z,94854.28
2023-05-04T15:40:23.902Z,94856.50
2023-05-04T15:42:25.602Z,94851.69
2023-05-04T15:44:28.068Z,94854.06
2023-05-04T15:46:29.716Z,94853.06
2023-05-04T15:48:31.356Z,94854.34
2023-05-04T15:50:33.414Z,94856.31
2023-05-04T15:52:35.084Z,94859.09
2023-05-04T15:54:36.753Z,94854.09
2023-05-04T15:56:38.372Z,94860.66
2023-05-04T15:58:40.011Z,94858.84
2023-05-04T16:00:41.673Z,94856.56
2023-05-04T16:02:43.326Z,94854.63
2023-05-04T16:04:45.053Z,94869.47
2023-05-04T16:06:47.829Z,94862.88
2023-05-04T16:08:49.574Z,94869.72
2023-05-04T16:10:53.432Z,94867.91
2023-05-04T16:12:55.312Z,94865.91
2023-05-04T16:14:56.960Z,94873.28
2023-05-04T16:17:02.094Z,94870.00
2023-05-04T16:19:03.765Z,94872.47
2023-05-04T16:21:05.372Z,94863.56
2023-05-04T16:23:07.095Z,94871.28
2023-05-04T16:25:11.025Z,94863.88
2023-05-04T16:27:13.032Z,94867.31
2023-05-04T16:29:15.450Z,94873.97
2023-05-04T16:31:17.121Z,94875.25
2023-05-04T16:33:19.717Z,94872.63
2023-05-04T16:35:21.651Z,94869.31
2023-05-04T16:37:23.255Z,94875.94
2023-05-04T16:39:31.494Z,94879.50
2023-05-04T16:41:33.387Z,94872.94
2023-05-04T16:43:34.984Z,94871.63
2023-05-04T16:45:37.145Z,94883.56
2023-05-04T16:47:39.324Z,94881.34
2023-05-04T16:49:41.174Z,94882.16
2023-05-04T16:51:43.497Z,94892.53
2023-05-04T16:53:45.105Z,94896.06
2023-05-04T16:55:46.943Z,94892.63
2023-05-04T16:57:48.600Z,94897.44
2023-05-04T16:59:50.237Z,94899.09
2023-05-04T17:01:51.984Z,94895.31
2023-05-04T17:03:53.856Z,94904.97
2023-05-04T17:05:55.612Z,94913.50
2023-05-04T17:07:57.217Z,94906.06
2023-05-04T17:09:58.949Z,94910.19
2023-05-04T17:12:01.127Z,94915.19
2023-05-04T17:14:03.583Z,94919.81
2023-05-04T17:16:06.251Z,94913.41
2023-05-04T17:18:08.171Z,94925.41
2023-05-04T17:20:14.939Z,94922.44
2023-05-04T17:22:17.491Z,94927.19
2023-05-04T17:24:19.330Z,94931.81
2023-05-04T17:26:21.227Z,94928.81
2023-05-04T17:28:23.066Z,94930.28
2023-05-04T17:30:24.754Z,94930.66
2023-05-04T17:32:26.741Z,94937.19
2023-05-04T17:34:28.476Z,94935.69
2023-05-04T17:36:30.112Z,94933.50
2023-05-04T17:38:32.611Z,94935.94
2023-05-04T17:40:34.565Z,94938.38
2023-05-04T17:42:36.173Z,94943.28
2023-05-04T17:44:37.753Z,94945.75
2023-05-04T17:46:40.260Z,94944.38
2023-05-04T17:48:42.090Z,94954.06
2023-05-04T17:50:45.522Z,94951.47
2023-05-04T17:52:51.787Z,94952.69
2023-05-04T17:54:53.850Z,94952.50
2023-05-04T17:56:55.438Z,94963.91
2023-05-04T17:58:57.016Z,94961.94
2023-05-04T18:00:58.635Z,94962.06
2023-05-04T18:03:00.242Z,94963.06
2023-05-04T18:05:02.508Z,94967.34
2023-05-04T18:07:04.149Z,94974.84
2023-05-04T18:09:05.762Z,94973.59
2023-05-04T18:11:07.323Z,94976.94
2023-05-04T18:13:08.928Z,94977.22
2023-05-04T18:15:10.672Z,94980.03
2023-05-04T18:17:12.269Z,94975.69
2023-05-04T18:19:13.889Z,94982.81
2023-05-04T18:21:15.528Z,94984.91
2023-05-04T18:23:17.075Z,94980.19
2023-05-04T18:25:18.663Z,94978.44
2023-05-04T18:27:20.306Z,94986.97
2023-05-04T18:29:21.880Z,94984.25
2023-05-04T18:31:23.525Z,94987.09
2023-05-04T18:33:25.131Z,94990.28
2023-05-04T18:35:26.961Z,94992.75
2023-05-04T18:37:31.728Z,94992.25
2023-05-04T18:39:33.312Z,94988.19
2023-05-04T18:41:35.080Z,94989.91
2023-05-04T18:43:36.710Z,94997.78
2023-05-04T18:45:38.340Z,94996.06
2023-05-04T18:47:40.027Z,94999.56
2023-05-04T18:49:41.994Z,94999.25
2023-05-04T18:51:43.624Z,94995.97
2023-05-04T18:53:47.007Z,95004.88
2023-05-04T18:56:05.806Z,95005.19
2023-05-04T18:58:07.447Z,95006.16
2023-05-04T19:00:09.821Z,95007.63
2023-05-04T19:02:12.650Z,95001.91
2023-05-04T19:04:14.259Z,95004.13
2023-05-04T19:06:15.886Z,95000.56
2023-05-04T19:08:18.890Z,95013.16
2023-05-04T19:10:20.477Z,95014.22
2023-05-04T19:12:22.173Z,95019.59
2023-05-04T19:14:25.342Z,95022.03
2023-05-04T19:16:27.265Z,95020.34
2023-05-04T19:18:28.902Z,95033.44
2023-05-04T19:20:30.499Z,95037.09
2023-05-04T19:22:32.097Z,95035.63
2023-05-04T19:24:36.241Z,95033.41
2023-05-04T19:26:39.066Z,95037.47
2023-05-04T19:28:40.672Z,95031.75
2023-05-04T19:30:42.439Z,95031.66
2023-05-04T19:32:44.096Z,95029.22
2023-05-04T19:34:45.775Z,95034.03
2023-05-04T19:36:47.386Z,95036.06
2023-05-04T19:38:49.042Z,95035.50
2023-05-04T19:40:50.851Z,95039.66
2023-05-04T19:42:52.573Z,95039.09
2023-05-04T19:44:54.187Z,95041.44
2023-05-04T19:46:56.142Z,95046.53
2023-05-04T19:48:57.948Z,95043.75
2023-05-04T19:50:59.607Z,95044.97
2023-05-04T19:53:01.179Z,95049.75
2023-05-04T19:55:03.166Z,95045.81
2023-05-04T19:57:05.087Z,95037.78
2023-05-04T19:59:06.728Z,95040.59
2023-05-04T20:01:08.564Z,95043.44
2023-05-04T20:03:10.539Z,95047.06
2023-05-04T20:05:12.789Z,95042.63
2023-05-04T20:07:14.404Z,95045.09
2023-05-04T20:09:16.148Z,95043.44
2023-05-04T20:11:17.877Z,95053.28
2023-05-04T20:13:19.616Z,95047.03
2023-05-04T20:15:21.652Z,95045.72
2023-05-04T20:17:23.570Z,95047.84
2023-05-04T20:19:25.150Z,95045.00
2023-05-04T20:21:27.186Z,95045.97
2023-05-04T20:23:28.811Z,95046.28
2023-05-04T20:25:30.422Z,95055.22
2023-05-04T20:27:31.995Z,95048.69
2023-05-04T20:29:33.901Z,95047.03
2023-05-04T20:31:35.787Z,95053.06
2023-05-04T20:33:37.495Z,95050.72
2023-05-04T20:35:42.025Z,95047.88
2023-05-04T20:37:43.607Z,95042.16
2023-05-04T20:39:45.421Z,95050.03
2023-05-04T20:41:47.770Z,95037.44
2023-05-04T20:43:50.213Z,95039.94
2023-05-04T20:45:53.445Z,95047.38
2023-05-04T20:47:55.131Z,95045.78
2023-05-04T20:49:56.781Z,95047.63
2023-05-04T20:51:58.352Z,95048.28
2023-05-04T20:53:59.997Z,95055.94
2023-05-04T20:56:01.985Z,95049.88
2023-05-04T20:58:03.560Z,95051.22
2023-05-04T21:00:06.702Z,95046.53
2023-05-04T21:02:08.847Z,95052.34
2023-05-04T21:04:10.623Z,95054.00
2023-05-04T21:06:12.352Z,95054.34
2023-05-04T21:08:14.056Z,95053.38
2023-05-04T21:10:15.681Z,95053.88
2023-05-04T21:12:17.479Z,95049.44
2023-05-04T21:14:19.037Z,95049.16
2023-05-04T21:16:20.706Z,95043.72
2023-05-04T21:18:22.644Z,95050.97
2023-05-04T21:20:24.251Z,95052.28
2023-05-04T21:22:27.364Z,95059.00
2023-05-04T21:24:29.054Z,95056.75
2023-05-04T21:26:30.685Z,95059.03
2023-05-04T21:28:32.507Z,95060.84
2023-05-04T21:30:34.124Z,95058.06
2023-05-04T21:32:35.844Z,95064.38
2023-05-04T21:34:37.453Z,95068.66
2023-05-04T21:36:40.353Z,95074.25
2023-05-04T21:38:42.185Z,95066.38
2023-05-04T21:40:43.714Z,95071.31
2023-05-04T21:42:45.315Z,95070.16
2023-05-04T21:44:46.882Z,95067.06
2023-05-04T21:46:48.541Z,95080.00
2023-05-04T21:48:51.721Z,95077.84
2023-05-04T21:50:53.319Z,95082.63
2023-05-04T21:52:54.902Z,95085.88
2023-05-04T21:54:56.507Z,95081.13
2023-05-04T21:56:58.139Z,95084.06
2023-05-04T21:58:59.734Z,95080.06
2023-05-04T22:01:01.360Z,95078.16
2023-05-04T22:03:03.019Z,95080.34
2023-05-04T22:05:05.145Z,95076.50
2023-05-04T22:07:06.701Z,95077.81
2023-05-04T22:09:09.028Z,95067.97
2023-05-04T22:11:10.735Z,95075.88
2023-05-04T22:13:12.352Z,95071.38
2023-05-04T22:15:14.218Z,95068.47
2023-05-04T22:17:15.864Z,95065.53
2023-05-04T22:19:17.510Z,95067.53
2023-05-04T22:21:19.091Z,95059.97
2023-05-04T22:23:20.714Z,95058.34
2023-05-04T22:25:22.322Z,95057.88
2023-05-04T22:27:23.889Z,95051.44
2023-05-04T22:29:25.564Z,95054.03
2023-05-04T22:31:27.306Z,95051.06
2023-05-04T22:33:28.979Z,95049.41
2023-05-04T22:35:31.719Z,95039.28
2023-05-04T22:37:33.302Z,95039.09
2023-05-04T22:39:34.884Z,95037.66
2023-05-04T22:41:36.890Z,95038.63
2023-05-04T22:43:38.497Z,95035.03
2023-05-04T22:45:40.833Z,95035.03
2023-05-04T22:47:42.478Z,95035.34
2023-05-04T22:49:44.182Z,95034.69
2023-05-04T22:51:45.830Z,95030.75
2023-05-04T22:53:47.443Z,95029.09
2023-05-04T22:55:48.999Z,95029.44
2023-05-04T22:57:50.689Z,95030.09
2023-05-04T22:59:52.273Z,95019.28
2023-05-04T23:01:53.893Z,95022.72
2023-05-04T23:03:56.057Z,95019.47
2023-05-04T23:05:59.978Z,95022.59
2023-05-04T23:08:01.422Z,95026.53
2023-05-04T23:10:03.545Z,95023.72
2023-05-04T23:12:05.369Z,95021.59
2023-05-04T23:14:07.211Z,95024.56
2023-05-04T23:16:08.851Z,95025.88
2023-05-04T23:18:10.466Z,95017.66
2023-05-04T23:20:13.376Z,95010.91
2023-05-04T23:22:14.994Z,95006.81
2023-05-04T23:24:16.542Z,95014.84
2023-05-04T23:26:18.363Z,95010.41
2023-05-04T23:28:19.998Z,95012.72
2023-05-04T23:30:21.665Z,95010.75
2023-05-04T23:32:23.464Z,95006.16
2023-05-04T23:34:25.084Z,95007.66
2023-05-04T23:36:27.672Z,95004.88
2023-05-04T23:38:29.313Z,95001.25
2023-05-04T23:40:30.857Z,95004.03
2023-05-04T23:42:32.662Z,94996.00
2023-05-04T23:44:34.317Z,94996.81
2023-05-04T23:46:35.922Z,94991.41
2023-05-04T23:48:37.484Z,94991.41
2023-05-04T23:50:39.119Z,94991.72
2023-05-04T23:52:40.721Z,94992.69
2023-05-04T23:54:42.309Z,94993.84
2023-05-04T23:56:43.976Z,94986.63
2023-05-04T23:58:45.618Z,94994.84
